sensor_id;sensor_type;location;lat;lon;timestamp;pressure;altitude;pressure_sealevel;temperature;humidity
15674;BME280;7937;48.090;16.212;2023-03-20T00:00:35;97778.56;;;3.92;70.94
15674;BME280;7937;48.090;16.212;2023-03-20T00:03:38;97781.00;;;3.94;71.27
15674;BME280;7937;48.090;16.212;2023-03-20T00:06:40;97775.97;;;3.99;71.50
15674;BME280;7937;48.090;16.212;2023-03-20T00:09:42;97768.25;;;3.97;71.93
15674;BME280;7937;48.090;16.212;2023-03-20T00:12:46;97776.44;;;4.16;72.00
15674;BME280;7937;48.090;16.212;2023-03-20T00:15:49;97773.00;;;4.15;72.00
15674;BME280;7937;48.090;16.212;2023-03-20T00:18:52;97770.56;;;4.20;72.54
15674;BME280;7937;48.090;16.212;2023-03-20T00:21:54;97775.44;;;4.23;72.56
15674;BME280;7937;48.090;16.212;2023-03-20T00:24:56;97754.97;;;4.25;72.40
15674;BME280;7937;48.090;16.212;2023-03-20T00:27:59;97775.66;;;4.28;72.63
15674;BME280;7937;48.090;16.212;2023-03-20T00:31:00;97767.94;;;4.33;72.55
15674;BME280;7937;48.090;16.212;2023-03-20T00:34:08;97769.81;;;4.39;72.54
15674;BME280;7937;48.090;16.212;2023-03-20T00:37:11;97764.13;;;4.43;72.49
15674;BME280;7937;48.090;16.212;2023-03-20T00:40:13;97759.03;;;4.41;72.46
15674;BME280;7937;48.090;16.212;2023-03-20T00:43:16;97757.00;;;4.43;72.55
15674;BME280;7937;48.090;16.212;2023-03-20T00:46:19;97751.94;;;4.48;72.17
15674;BME280;7937;48.090;16.212;2023-03-20T00:49:25;97749.50;;;4.40;72.15
15674;BME280;7937;48.090;16.212;2023-03-20T00:52:27;97742.59;;;4.32;72.81
15674;BME280;7937;48.090;16.212;2023-03-20T00:55:29;97747.06;;;4.32;73.31
15674;BME280;7937;48.090;16.212;2023-03-20T00:58:31;97749.72;;;4.45;73.04
15674;BME280;7937;48.090;16.212;2023-03-20T01:01:33;97747.09;;;4.52;73.03
15674;BME280;7937;48.090;16.212;2023-03-20T01:04:38;97754.19;;;4.51;73.08
15674;BME280;7937;48.090;16.212;2023-03-20T01:07:41;97748.09;;;4.57;73.60
15674;BME280;7937;48.090;16.212;2023-03-20T01:10:44;97746.72;;;4.68;73.95
15674;BME280;7937;48.090;16.212;2023-03-20T01:13:48;97741.22;;;4.70;74.36
15674;BME280;7937;48.090;16.212;2023-03-20T01:16:53;97750.75;;;4.90;74.91
15674;BME280;7937;48.090;16.212;2023-03-20T01:19:55;97754.00;;;5.06;75.13
15674;BME280;7937;48.090;16.212;2023-03-20T01:22:57;97756.22;;;5.15;75.48
15674;BME280;7937;48.090;16.212;2023-03-20T01:25:59;97740.38;;;5.22;75.43
15674;BME280;7937;48.090;16.212;2023-03-20T01:29:03;97744.22;;;5.33;75.52
15674;BME280;7937;48.090;16.212;2023-03-20T01:32:11;97752.47;;;5.56;76.25
15674;BME280;7937;48.090;16.212;2023-03-20T01:35:17;97752.03;;;5.73;75.62
15674;BME280;7937;48.090;16.212;2023-03-20T01:38:22;97759.88;;;5.99;76.51
15674;BME280;7937;48.090;16.212;2023-03-20T01:41:28;97740.09;;;6.08;75.41
15674;BME280;7937;48.090;16.212;2023-03-20T01:44:32;97759.75;;;6.26;74.99
15674;BME280;7937;48.090;16.212;2023-03-20T01:47:35;97767.25;;;6.29;74.74
15674;BME280;7937;48.090;16.212;2023-03-20T01:50:37;97765.66;;;6.28;74.27
15674;BME280;7937;48.090;16.212;2023-03-20T01:53:48;97763.59;;;6.30;74.22
15674;BME280;7937;48.090;16.212;2023-03-20T02:00:09;97758.91;;;6.32;73.99
15674;BME280;7937;48.090;16.212;2023-03-20T02:03:16;97742.13;;;6.13;73.79
15674;BME280;7937;48.090;16.212;2023-03-20T02:06:42;97762.41;;;6.26;74.21
15674;BME280;7937;48.090;16.212;2023-03-20T02:09:52;97760.75;;;6.25;74.41
15674;BME280;7937;48.090;16.212;2023-03-20T02:13:03;97747.00;;;6.16;74.77
15674;BME280;7937;48.090;16.212;2023-03-20T02:16:15;97758.28;;;6.30;74.59
15674;BME280;7937;48.090;16.212;2023-03-20T02:30:30;97767.13;;;6.17;73.58
15674;BME280;7937;48.090;16.212;2023-03-20T02:44:50;97760.94;;;5.91;73.54
15674;BME280;7937;48.090;16.212;2023-03-20T02:48:12;97763.38;;;5.86;73.71
15674;BME280;7937;48.090;16.212;2023-03-20T02:54:49;97722.19;;;5.59;74.44
15674;BME280;7937;48.090;16.212;2023-03-20T02:58:11;97767.00;;;5.85;73.97
15674;BME280;7937;48.090;16.212;2023-03-20T03:04:28;97771.75;;;5.77;74.00
15674;BME280;7937;48.090;16.212;2023-03-20T03:07:34;97776.41;;;5.75;74.21
15674;BME280;7937;48.090;16.212;2023-03-20T03:10:42;97769.72;;;5.65;74.36
15674;BME280;7937;48.090;16.212;2023-03-20T03:13:52;97783.75;;;5.73;74.42
15674;BME280;7937;48.090;16.212;2023-03-20T03:16:56;97784.38;;;5.68;74.49
15674;BME280;7937;48.090;16.212;2023-03-20T03:20:11;97783.97;;;5.64;74.80
15674;BME280;7937;48.090;16.212;2023-03-20T03:23:42;97787.63;;;5.63;74.94
15674;BME280;7937;48.090;16.212;2023-03-20T03:26:46;97783.56;;;5.67;75.47
15674;BME280;7937;48.090;16.212;2023-03-20T03:29:57;97786.00;;;5.69;75.41
15674;BME280;7937;48.090;16.212;2023-03-20T03:33:18;97770.97;;;5.63;75.46
15674;BME280;7937;48.090;16.212;2023-03-20T03:36:53;97789.00;;;5.79;75.95
15674;BME280;7937;48.090;16.212;2023-03-20T03:43:34;97783.91;;;5.84;75.58
15674;BME280;7937;48.090;16.212;2023-03-20T03:50:13;97778.25;;;5.74;75.47
15674;BME280;7937;48.090;16.212;2023-03-20T03:53:28;97790.44;;;5.75;75.27
15674;BME280;7937;48.090;16.212;2023-03-20T03:56:31;97781.47;;;5.76;75.23
15674;BME280;7937;48.090;16.212;2023-03-20T03:59:39;97755.13;;;5.50;75.05
15674;BME280;7937;48.090;16.212;2023-03-20T04:02:44;97788.41;;;5.70;75.57
15674;BME280;7937;48.090;16.212;2023-03-20T04:05:48;97764.69;;;5.57;75.31
15674;BME280;7937;48.090;16.212;2023-03-20T04:08:53;97791.88;;;5.71;75.33
15674;BME280;7937;48.090;16.212;2023-03-20T04:11:56;97789.66;;;5.68;75.42
15674;BME280;7937;48.090;16.212;2023-03-20T04:14:58;97790.69;;;5.67;75.31
15674;BME280;7937;48.090;16.212;2023-03-20T04:18:04;97791.72;;;5.59;75.46
15674;BME280;7937;48.090;16.212;2023-03-20T04:21:08;97777.53;;;5.47;75.91
15674;BME280;7937;48.090;16.212;2023-03-20T04:24:10;97789.06;;;5.59;76.48
15674;BME280;7937;48.090;16.212;2023-03-20T04:27:13;97785.41;;;5.67;76.34
15674;BME280;7937;48.090;16.212;2023-03-20T04:30:16;97781.50;;;5.69;76.37
15674;BME280;7937;48.090;16.212;2023-03-20T04:33:50;97789.81;;;5.80;77.59
15674;BME280;7937;48.090;16.212;2023-03-20T04:37:06;97776.78;;;5.98;76.82
15674;BME280;7937;48.090;16.212;2023-03-20T04:40:42;97746.50;;;5.87;76.31
15674;BME280;7937;48.090;16.212;2023-03-20T04:43:45;97741.41;;;5.92;76.57
15674;BME280;7937;48.090;16.212;2023-03-20T04:46:47;97789.28;;;6.23;75.61
15674;BME280;7937;48.090;16.212;2023-03-20T04:49:50;97792.72;;;6.23;75.33
15674;BME280;7937;48.090;16.212;2023-03-20T04:52:53;97799.06;;;6.22;75.47
15674;BME280;7937;48.090;16.212;2023-03-20T04:55:55;97796.81;;;6.19;75.34
15674;BME280;7937;48.090;16.212;2023-03-20T04:58:57;97806.19;;;6.15;75.15
15674;BME280;7937;48.090;16.212;2023-03-20T05:01:59;97812.94;;;6.04;75.18
15674;BME280;7937;48.090;16.212;2023-03-20T05:05:02;97808.47;;;6.05;75.18
15674;BME280;7937;48.090;16.212;2023-03-20T05:08:05;97821.31;;;6.01;74.95
15674;BME280;7937;48.090;16.212;2023-03-20T05:11:10;97817.66;;;5.89;75.07
15674;BME280;7937;48.090;16.212;2023-03-20T05:14:42;97789.88;;;5.60;74.85
15674;BME280;7937;48.090;16.212;2023-03-20T05:18:06;97833.53;;;5.76;75.83
15674;BME280;7937;48.090;16.212;2023-03-20T05:21:23;97832.31;;;5.78;75.27
15674;BME280;7937;48.090;16.212;2023-03-20T05:24:45;97844.13;;;5.82;75.32
15674;BME280;7937;48.090;16.212;2023-03-20T05:27:50;97854.69;;;5.82;75.94
15674;BME280;7937;48.090;16.212;2023-03-20T05:31:30;97856.13;;;5.91;75.67
15674;BME280;7937;48.090;16.212;2023-03-20T05:34:47;97853.84;;;5.95;75.61
15674;BME280;7937;48.090;16.212;2023-03-20T05:38:18;97860.97;;;6.01;75.53
15674;BME280;7937;48.090;16.212;2023-03-20T05:41:46;97845.13;;;5.94;75.30
15674;BME280;7937;48.090;16.212;2023-03-20T05:45:18;97865.44;;;6.07;75.70
15674;BME280;7937;48.090;16.212;2023-03-20T05:48:29;97872.13;;;6.16;75.54
15674;BME280;7937;48.090;16.212;2023-03-20T05:52:02;97878.16;;;6.30;75.55
15674;BME280;7937;48.090;16.212;2023-03-20T05:55:19;97834.28;;;6.09;75.52
15674;BME280;7937;48.090;16.212;2023-03-20T05:58:50;97869.22;;;6.31;75.49
15674;BME280;7937;48.090;16.212;2023-03-20T06:02:13;97876.63;;;6.61;75.42
15674;BME280;7937;48.090;16.212;2023-03-20T06:05:21;97877.34;;;6.75;75.14
15674;BME280;7937;48.090;16.212;2023-03-20T06:08:25;97866.97;;;6.73;74.93
15674;BME280;7937;48.090;16.212;2023-03-20T06:11:28;97869.56;;;6.86;74.69
15674;BME280;7937;48.090;16.212;2023-03-20T06:14:31;97871.50;;;6.97;75.15
15674;BME280;7937;48.090;16.212;2023-03-20T06:17:38;97891.50;;;7.25;74.70
15674;BME280;7937;48.090;16.212;2023-03-20T06:20:40;97890.81;;;7.36;74.34
15674;BME280;7937;48.090;16.212;2023-03-20T06:23:42;97893.88;;;7.58;74.71
15674;BME280;7937;48.090;16.212;2023-03-20T06:26:45;97902.00;;;8.07;73.95
15674;BME280;7937;48.090;16.212;2023-03-20T06:29:47;97902.91;;;8.37;73.13
15674;BME280;7937;48.090;16.212;2023-03-20T06:32:54;97889.47;;;8.99;71.23
15674;BME280;7937;48.090;16.212;2023-03-20T06:36:04;97894.41;;;9.37;69.79
15674;BME280;7937;48.090;16.212;2023-03-20T06:39:07;97891.09;;;9.65;68.58
15674;BME280;7937;48.090;16.212;2023-03-20T06:42:10;97891.56;;;9.86;67.03
15674;BME280;7937;48.090;16.212;2023-03-20T06:45:17;97897.78;;;10.15;66.65
15674;BME280;7937;48.090;16.212;2023-03-20T06:48:31;97899.19;;;10.17;65.61
15674;BME280;7937;48.090;16.212;2023-03-20T06:51:39;97899.53;;;10.32;65.34
15674;BME280;7937;48.090;16.212;2023-03-20T06:54:42;97878.22;;;10.32;64.89
15674;BME280;7937;48.090;16.212;2023-03-20T06:57:44;97891.97;;;10.53;64.32
15674;BME280;7937;48.090;16.212;2023-03-20T07:00:49;97903.72;;;10.69;63.92
15674;BME280;7937;48.090;16.212;2023-03-20T07:03:53;97878.81;;;10.75;63.56
15674;BME280;7937;48.090;16.212;2023-03-20T07:07:00;97888.13;;;10.89;62.57
15674;BME280;7937;48.090;16.212;2023-03-20T07:10:03;97903.09;;;11.07;62.01
15674;BME280;7937;48.090;16.212;2023-03-20T07:13:05;97877.16;;;11.02;61.79
15674;BME280;7937;48.090;16.212;2023-03-20T07:16:10;97915.69;;;11.40;61.25
15674;BME280;7937;48.090;16.212;2023-03-20T07:19:14;97912.31;;;11.45;61.10
15674;BME280;7937;48.090;16.212;2023-03-20T07:22:23;97917.81;;;11.38;61.31
15674;BME280;7937;48.090;16.212;2023-03-20T07:25:33;97915.22;;;11.43;61.02
15674;BME280;7937;48.090;16.212;2023-03-20T07:28:47;97920.94;;;11.52;61.12
15674;BME280;7937;48.090;16.212;2023-03-20T07:31:54;97904.56;;;11.43;59.78
15674;BME280;7937;48.090;16.212;2023-03-20T07:35:01;97925.72;;;11.67;59.10
15674;BME280;7937;48.090;16.212;2023-03-20T07:38:04;97918.97;;;11.93;59.15
15674;BME280;7937;48.090;16.212;2023-03-20T07:41:10;97932.03;;;12.28;57.60
15674;BME280;7937;48.090;16.212;2023-03-20T07:44:17;97921.13;;;12.51;56.20
15674;BME280;7937;48.090;16.212;2023-03-20T07:47:25;97936.50;;;12.88;54.80
15674;BME280;7937;48.090;16.212;2023-03-20T07:50:27;97937.69;;;13.46;53.55
15674;BME280;7937;48.090;16.212;2023-03-20T07:53:29;97928.72;;;13.08;53.38
15674;BME280;7937;48.090;16.212;2023-03-20T07:56:31;97937.66;;;14.58;50.83
15674;BME280;7937;48.090;16.212;2023-03-20T07:59:33;97932.50;;;14.46;50.50
15674;BME280;7937;48.090;16.212;2023-03-20T08:02:35;97938.22;;;14.17;51.10
15674;BME280;7937;48.090;16.212;2023-03-20T08:05:38;97941.69;;;13.76;52.73
15674;BME280;7937;48.090;16.212;2023-03-20T08:08:40;97942.66;;;13.64;52.85
15674;BME280;7937;48.090;16.212;2023-03-20T08:11:43;97939.06;;;13.54;53.40
15674;BME280;7937;48.090;16.212;2023-03-20T08:14:45;97925.78;;;14.43;51.84
15674;BME280;7937;48.090;16.212;2023-03-20T08:17:47;97929.66;;;15.92;46.74
15674;BME280;7937;48.090;16.212;2023-03-20T08:20:49;97927.47;;;15.48;48.06
15674;BME280;7937;48.090;16.212;2023-03-20T08:23:51;97927.91;;;16.62;45.47
15674;BME280;7937;48.090;16.212;2023-03-20T08:26:53;97920.94;;;19.71;39.17
15674;BME280;7937;48.090;16.212;2023-03-20T08:29:55;97901.75;;;20.32;36.17
15674;BME280;7937;48.090;16.212;2023-03-20T08:32:57;97937.25;;;20.86;35.28
15674;BME280;7937;48.090;16.212;2023-03-20T08:36:00;97936.88;;;21.43;33.77
15674;BME280;7937;48.090;16.212;2023-03-20T08:39:02;97938.50;;;22.11;33.29
15674;BME280;7937;48.090;16.212;2023-03-20T08:42:05;97933.31;;;22.23;32.00
15674;BME280;7937;48.090;16.212;2023-03-20T08:45:08;97939.38;;;21.75;33.25
15674;BME280;7937;48.090;16.212;2023-03-20T08:48:10;97939.94;;;21.13;34.47
15674;BME280;7937;48.090;16.212;2023-03-20T08:51:12;97941.84;;;19.27;38.00
15674;BME280;7937;48.090;16.212;2023-03-20T08:54:14;97929.91;;;17.85;40.33
15674;BME280;7937;48.090;16.212;2023-03-20T08:57:19;97937.34;;;17.19;42.72
15674;BME280;7937;48.090;16.212;2023-03-20T09:00:21;97944.94;;;16.27;44.01
15674;BME280;7937;48.090;16.212;2023-03-20T09:03:24;97948.47;;;15.71;45.56
15674;BME280;7937;48.090;16.212;2023-03-20T09:06:26;97950.28;;;15.40;46.05
15674;BME280;7937;48.090;16.212;2023-03-20T09:09:29;97936.66;;;15.78;45.90
15674;BME280;7937;48.090;16.212;2023-03-20T09:12:31;97933.16;;;15.82;45.33
15674;BME280;7937;48.090;16.212;2023-03-20T09:15:34;97939.59;;;15.96;45.60
15674;BME280;7937;48.090;16.212;2023-03-20T09:18:37;97943.34;;;15.70;45.40
15674;BME280;7937;48.090;16.212;2023-03-20T09:21:39;97935.03;;;16.07;44.96
15674;BME280;7937;48.090;16.212;2023-03-20T09:24:41;97930.41;;;16.23;44.51
15674;BME280;7937;48.090;16.212;2023-03-20T09:27:43;97937.63;;;16.48;43.89
15674;BME280;7937;48.090;16.212;2023-03-20T09:30:45;97917.31;;;15.96;44.26
15674;BME280;7937;48.090;16.212;2023-03-20T09:33:47;97904.41;;;15.98;44.44
15674;BME280;7937;48.090;16.212;2023-03-20T09:36:49;97932.03;;;16.24;44.40
15674;BME280;7937;48.090;16.212;2023-03-20T09:39:52;97919.16;;;16.21;44.07
15674;BME280;7937;48.090;16.212;2023-03-20T09:43:07;97927.22;;;16.00;43.97
15674;BME280;7937;48.090;16.212;2023-03-20T09:53:30;97932.28;;;15.51;44.99
15674;BME280;7937;48.090;16.212;2023-03-20T09:56:35;97906.22;;;15.21;45.42
15674;BME280;7937;48.090;16.212;2023-03-20T09:59:38;97930.16;;;15.58;44.77
15674;BME280;7937;48.090;16.212;2023-03-20T10:03:10;97930.44;;;15.62;44.29
15674;BME280;7937;48.090;16.212;2023-03-20T10:06:14;97906.53;;;16.11;44.01
15674;BME280;7937;48.090;16.212;2023-03-20T10:09:22;97922.75;;;16.76;43.05
15674;BME280;7937;48.090;16.212;2023-03-20T10:13:02;97940.31;;;16.43;43.99
15674;BME280;7937;48.090;16.212;2023-03-20T10:19:30;97936.59;;;16.23;43.99
15674;BME280;7937;48.090;16.212;2023-03-20T10:22:35;97934.97;;;16.38;42.91
15674;BME280;7937;48.090;16.212;2023-03-20T10:25:44;97916.47;;;16.11;43.92
15674;BME280;7937;48.090;16.212;2023-03-20T10:28:57;97920.06;;;16.81;43.48
15674;BME280;7937;48.090;16.212;2023-03-20T10:35:55;97894.91;;;17.01;41.66
15674;BME280;7937;48.090;16.212;2023-03-20T10:42:24;97918.28;;;17.11;41.35
15674;BME280;7937;48.090;16.212;2023-03-20T10:45:41;97903.25;;;17.05;41.50
15674;BME280;7937;48.090;16.212;2023-03-20T10:49:09;97890.59;;;17.44;40.86
15674;BME280;7937;48.090;16.212;2023-03-20T10:52:20;97895.81;;;17.65;40.24
15674;BME280;7937;48.090;16.212;2023-03-20T10:55:28;97901.69;;;18.06;39.64
15674;BME280;7937;48.090;16.212;2023-03-20T10:58:36;97857.09;;;17.56;39.59
15674;BME280;7937;48.090;16.212;2023-03-20T11:01:40;97897.72;;;17.64;40.38
15674;BME280;7937;48.090;16.212;2023-03-20T11:04:42;97890.25;;;17.17;41.46
15674;BME280;7937;48.090;16.212;2023-03-20T11:07:46;97898.28;;;17.22;41.06
15674;BME280;7937;48.090;16.212;2023-03-20T11:10:58;97889.25;;;17.02;41.59
15674;BME280;7937;48.090;16.212;2023-03-20T11:14:21;97883.66;;;17.33;41.00
15674;BME280;7937;48.090;16.212;2023-03-20T11:17:27;97876.97;;;17.31;41.38
15674;BME280;7937;48.090;16.212;2023-03-20T11:21:00;97854.84;;;16.99;41.86
15674;BME280;7937;48.090;16.212;2023-03-20T11:24:03;97862.56;;;17.11;41.65
15674;BME280;7937;48.090;16.212;2023-03-20T11:27:17;97865.72;;;17.18;40.83
15674;BME280;7937;48.090;16.212;2023-03-20T11:30:20;97882.00;;;16.98;41.18
15674;BME280;7937;48.090;16.212;2023-03-20T11:33:25;97812.63;;;16.35;42.25
15674;BME280;7937;48.090;16.212;2023-03-20T11:36:29;97867.72;;;17.02;41.52
15674;BME280;7937;48.090;16.212;2023-03-20T11:39:33;97858.31;;;17.05;41.52
15674;BME280;7937;48.090;16.212;2023-03-20T11:42:38;97829.50;;;17.40;40.42
15674;BME280;7937;48.090;16.212;2023-03-20T11:45:49;97842.34;;;17.82;40.03
15674;BME280;7937;48.090;16.212;2023-03-20T11:49:03;97842.00;;;18.37;39.26
15674;BME280;7937;48.090;16.212;2023-03-20T11:52:14;97844.31;;;18.48;39.00
15674;BME280;7937;48.090;16.212;2023-03-20T11:55:32;97831.94;;;18.47;38.47
15674;BME280;7937;48.090;16.212;2023-03-20T11:58:36;97809.59;;;18.61;38.53
15674;BME280;7937;48.090;16.212;2023-03-20T12:01:42;97844.31;;;18.24;38.77
15674;BME280;7937;48.090;16.212;2023-03-20T12:04:47;97840.41;;;18.12;38.70
15674;BME280;7937;48.090;16.212;2023-03-20T12:07:50;97809.84;;;17.73;39.49
15674;BME280;7937;48.090;16.212;2023-03-20T12:10:59;97818.22;;;17.96;39.90
15674;BME280;7937;48.090;16.212;2023-03-20T12:14:09;97823.06;;;18.42;38.54
15674;BME280;7937;48.090;16.212;2023-03-20T12:21:21;97833.81;;;17.99;38.93
15674;BME280;7937;48.090;16.212;2023-03-20T12:24:41;97798.34;;;17.58;39.74
15674;BME280;7937;48.090;16.212;2023-03-20T12:27:51;97823.44;;;17.53;39.40
15674;BME280;7937;48.090;16.212;2023-03-20T12:34:26;97816.31;;;17.67;38.50
15674;BME280;7937;48.090;16.212;2023-03-20T12:37:30;97825.31;;;17.87;38.34
15674;BME280;7937;48.090;16.212;2023-03-20T12:40:41;97804.72;;;17.67;38.40
15674;BME280;7937;48.090;16.212;2023-03-20T12:43:53;97831.44;;;17.63;38.04
15674;BME280;7937;48.090;16.212;2023-03-20T12:53:42;97825.59;;;17.85;38.01
15674;BME280;7937;48.090;16.212;2023-03-20T13:04:25;97819.16;;;17.18;39.46
15674;BME280;7937;48.090;16.212;2023-03-20T13:08:21;97808.31;;;17.28;39.40
15674;BME280;7937;48.090;16.212;2023-03-20T13:11:50;97817.09;;;17.39;38.72
15674;BME280;7937;48.090;16.212;2023-03-20T13:15:09;97809.59;;;17.36;39.24
15674;BME280;7937;48.090;16.212;2023-03-20T13:21:36;97808.31;;;17.57;39.80
15674;BME280;7937;48.090;16.212;2023-03-20T13:25:02;97796.59;;;17.43;39.89
15674;BME280;7937;48.090;16.212;2023-03-20T13:28:32;97784.88;;;17.58;38.33
15674;BME280;7937;48.090;16.212;2023-03-20T13:38:00;97796.16;;;18.37;38.27
15674;BME280;7937;48.090;16.212;2023-03-20T13:41:06;97806.00;;;18.03;38.64
15674;BME280;7937;48.090;16.212;2023-03-20T13:44:11;97799.09;;;18.16;38.28
15674;BME280;7937;48.090;16.212;2023-03-20T13:47:23;97802.28;;;17.99;38.17
15674;BME280;7937;48.090;16.212;2023-03-20T13:50:32;97793.09;;;17.76;38.90
15674;BME280;7937;48.090;16.212;2023-03-20T13:57:24;97789.97;;;17.93;38.36
15674;BME280;7937;48.090;16.212;2023-03-20T14:03:59;97794.69;;;17.77;38.40
15674;BME280;7937;48.090;16.212;2023-03-20T14:07:41;97797.91;;;17.79;38.79
15674;BME280;7937;48.090;16.212;2023-03-20T14:10:44;97804.63;;;17.48;39.39
15674;BME280;7937;48.090;16.212;2023-03-20T14:13:49;97804.88;;;16.83;41.13
15674;BME280;7937;48.090;16.212;2023-03-20T14:17:06;97781.84;;;16.07;42.27
15674;BME280;7937;48.090;16.212;2023-03-20T14:20:19;97760.06;;;16.04;42.97
15674;BME280;7937;48.090;16.212;2023-03-20T14:23:34;97804.56;;;16.40;42.90
15674;BME280;7937;48.090;16.212;2023-03-20T14:26:38;97803.91;;;16.59;42.52
15674;BME280;7937;48.090;16.212;2023-03-20T14:29:43;97797.03;;;16.37;42.52
15674;BME280;7937;48.090;16.212;2023-03-20T14:32:57;97797.84;;;16.33;43.17
15674;BME280;7937;48.090;16.212;2023-03-20T14:36:20;97808.69;;;16.17;43.07
15674;BME280;7937;48.090;16.212;2023-03-20T14:42:34;97791.09;;;16.45;42.84
15674;BME280;7937;48.090;16.212;2023-03-20T14:45:46;97790.09;;;16.26;43.26
15674;BME280;7937;48.090;16.212;2023-03-20T14:48:54;97767.34;;;15.98;43.65
15674;BME280;7937;48.090;16.212;2023-03-20T15:04:42;97791.06;;;15.76;44.89
15674;BME280;7937;48.090;16.212;2023-03-20T15:07:44;97790.22;;;15.85;44.31
15674;BME280;7937;48.090;16.212;2023-03-20T15:10:50;97794.03;;;15.69;45.44
15674;BME280;7937;48.090;16.212;2023-03-20T15:13:54;97812.28;;;15.77;45.28
15674;BME280;7937;48.090;16.212;2023-03-20T15:16:59;97779.78;;;15.58;44.33
15674;BME280;7937;48.090;16.212;2023-03-20T15:20:20;97771.47;;;15.55;43.40
15674;BME280;7937;48.090;16.212;2023-03-20T15:23:23;97770.16;;;15.32;44.36
15674;BME280;7937;48.090;16.212;2023-03-20T15:26:28;97780.34;;;15.35;44.53
15674;BME280;7937;48.090;16.212;2023-03-20T15:29:31;97797.53;;;15.44;44.77
15674;BME280;7937;48.090;16.212;2023-03-20T15:32:36;97802.38;;;15.52;44.47
15674;BME280;7937;48.090;16.212;2023-03-20T15:35:38;97794.03;;;15.43;44.84
15674;BME280;7937;48.090;16.212;2023-03-20T15:38:40;97769.09;;;15.33;44.54
15674;BME280;7937;48.090;16.212;2023-03-20T15:41:49;97792.97;;;15.29;44.01
15674;BME280;7937;48.090;16.212;2023-03-20T15:44:54;97688.84;;;14.39;44.13
15674;BME280;7937;48.090;16.212;2023-03-20T15:48:16;97788.94;;;14.96;44.33
15674;BME280;7937;48.090;16.212;2023-03-20T15:51:22;97800.16;;;14.73;44.75
15674;BME280;7937;48.090;16.212;2023-03-20T15:54:27;97797.50;;;14.78;44.98
15674;BME280;7937;48.090;16.212;2023-03-20T15:57:34;97804.72;;;14.67;45.32
15674;BME280;7937;48.090;16.212;2023-03-20T16:00:41;97803.63;;;14.58;45.45
15674;BME280;7937;48.090;16.212;2023-03-20T16:03:44;97812.94;;;14.40;46.54
15674;BME280;7937;48.090;16.212;2023-03-20T16:06:58;97814.00;;;14.34;46.23
15674;BME280;7937;48.090;16.212;2023-03-20T16:10:00;97814.00;;;14.34;46.83
15674;BME280;7937;48.090;16.212;2023-03-20T16:13:03;97821.94;;;14.18;46.73
15674;BME280;7937;48.090;16.212;2023-03-20T16:16:10;97817.06;;;14.05;47.67
15674;BME280;7937;48.090;16.212;2023-03-20T16:19:15;97821.03;;;13.98;47.89
15674;BME280;7937;48.090;16.212;2023-03-20T16:22:27;97804.13;;;13.87;47.89
15674;BME280;7937;48.090;16.212;2023-03-20T16:25:33;97826.72;;;14.06;47.82
15674;BME280;7937;48.090;16.212;2023-03-20T16:28:36;97820.03;;;14.09;47.58
15674;BME280;7937;48.090;16.212;2023-03-20T16:32:01;97820.81;;;13.99;48.21
15674;BME280;7937;48.090;16.212;2023-03-20T16:35:17;97819.97;;;13.99;48.24
15674;BME280;7937;48.090;16.212;2023-03-20T16:41:37;97795.88;;;13.51;49.20
15674;BME280;7937;48.090;16.212;2023-03-20T16:44:40;97833.75;;;13.70;49.51
15674;BME280;7937;48.090;16.212;2023-03-20T16:47:42;97835.59;;;13.64;49.59
15674;BME280;7937;48.090;16.212;2023-03-20T16:50:46;97840.69;;;13.66;49.36
15674;BME280;7937;48.090;16.212;2023-03-20T16:53:57;97845.66;;;13.52;48.89
15674;BME280;7937;48.090;16.212;2023-03-20T16:57:00;97826.78;;;13.32;49.54
15674;BME280;7937;48.090;16.212;2023-03-20T17:00:45;97849.31;;;13.41;49.73
15674;BME280;7937;48.090;16.212;2023-03-20T17:03:54;97862.09;;;13.34;50.07
15674;BME280;7937;48.090;16.212;2023-03-20T17:06:59;97856.94;;;13.22;50.11
15674;BME280;7937;48.090;16.212;2023-03-20T17:10:11;97860.34;;;13.17;50.84
15674;BME280;7937;48.090;16.212;2023-03-20T17:13:17;97818.88;;;12.88;51.29
15674;BME280;7937;48.090;16.212;2023-03-20T17:16:20;97864.84;;;13.12;51.28
15674;BME280;7937;48.090;16.212;2023-03-20T17:19:23;97841.91;;;12.94;51.48
15674;BME280;7937;48.090;16.212;2023-03-20T17:22:26;97857.47;;;12.97;52.36
15674;BME280;7937;48.090;16.212;2023-03-20T17:25:32;97839.75;;;12.91;51.70
15674;BME280;7937;48.090;16.212;2023-03-20T17:28:35;97832.41;;;12.76;52.12
15674;BME280;7937;48.090;16.212;2023-03-20T17:31:38;97857.59;;;12.85;52.33
15674;BME280;7937;48.090;16.212;2023-03-20T17:34:40;97862.66;;;12.82;52.43
15674;BME280;7937;48.090;16.212;2023-03-20T17:37:43;97846.81;;;12.75;52.58
15674;BME280;7937;48.090;16.212;2023-03-20T17:40:46;97868.81;;;12.82;52.66
15674;BME280;7937;48.090;16.212;2023-03-20T17:43:50;97872.94;;;12.68;53.69
15674;BME280;7937;48.090;16.212;2023-03-20T17:46:55;97877.22;;;12.69;53.18
15674;BME280;7937;48.090;16.212;2023-03-20T17:50:00;97842.56;;;12.52;53.51
15674;BME280;7937;48.090;16.212;2023-03-20T17:53:02;97864.06;;;12.62;53.64
15674;BME280;7937;48.090;16.212;2023-03-20T17:56:15;97862.56;;;12.50;53.48
15674;BME280;7937;48.090;16.212;2023-03-20T17:59:20;97858.81;;;12.51;53.86
15674;BME280;7937;48.090;16.212;2023-03-20T18:02:23;97892.38;;;12.63;54.38
15674;BME280;7937;48.090;16.212;2023-03-20T18:05:25;97895.31;;;12.62;54.05
15674;BME280;7937;48.090;16.212;2023-03-20T18:08:30;97885.88;;;12.54;54.63
15674;BME280;7937;48.090;16.212;2023-03-20T18:11:33;97882.00;;;12.45;54.91
15674;BME280;7937;48.090;16.212;2023-03-20T18:14:37;97896.44;;;12.44;55.21
15674;BME280;7937;48.090;16.212;2023-03-20T18:17:41;97891.81;;;12.39;55.61
15674;BME280;7937;48.090;16.212;2023-03-20T18:20:44;97899.91;;;12.45;55.92
15674;BME280;7937;48.090;16.212;2023-03-20T18:23:48;97900.41;;;12.42;55.59
15674;BME280;7937;48.090;16.212;2023-03-20T18:26:52;97910.53;;;12.39;55.67
15674;BME280;7937;48.090;16.212;2023-03-20T18:29:57;97900.03;;;12.33;55.96
15674;BME280;7937;48.090;16.212;2023-03-20T18:33:00;97910.06;;;12.26;56.49
15674;BME280;7937;48.090;16.212;2023-03-20T18:36:03;97905.25;;;12.23;57.13